sensor_id;sensor_type;location;lat;lon;timestamp;temperature;humidity
50570;DHT22;36525;49.398;7.614;2022-11-15T00:01:14;10.70;99.90
50570;DHT22;36525;49.398;7.614;2022-11-15T00:03:43;10.80;99.90
50570;DHT22;36525;49.398;7.614;2022-11-15T00:06:10;10.70;99.90
50570;DHT22;36525;49.398;7.614;2022-11-15T00:08:38;10.80;99.90
50570;DHT22;36525;49.398;7.614;2022-11-15T00:11:05;10.80;99.90
50570;DHT22;36525;49.398;7.614;2022-11-15T00:13:31;10.80;99.90
50570;DHT22;36525;49.398;7.614;2022-11-15T00:16:00;10.80;99.90
50570;DHT22;36525;49.398;7.614;2022-11-15T00:18:28;10.90;99.90
50570;DHT22;36525;49.398;7.614;2022-11-15T00:21:02;10.90;99.90
50570;DHT22;36525;49.398;7.614;2022-11-15T00:23:33;10.80;99.90
50570;DHT22;36525;49.398;7.614;2022-11-15T00:26:00;10.80;99.90
50570;DHT22;36525;49.398;7.614;2022-11-15T00:28:27;10.90;99.90
50570;DHT22;36525;49.398;7.614;2022-11-15T00:31:03;10.90;99.90
50570;DHT22;36525;49.398;7.614;2022-11-15T00:33:32;11.00;99.90
50570;DHT22;36525;49.398;7.614;2022-11-15T00:36:09;10.90;99.90
50570;DHT22;36525;49.398;7.614;2022-11-15T00:38:39;10.90;99.90
50570;DHT22;36525;49.398;7.614;2022-11-15T00:41:07;10.90;99.90
50570;DHT22;36525;49.398;7.614;2022-11-15T00:43:35;10.90;99.90
50570;DHT22;36525;49.398;7.614;2022-11-15T00:46:03;10.90;99.90
50570;DHT22;36525;49.398;7.614;2022-11-15T00:48:30;10.90;99.90
50570;DHT22;36525;49.398;7.614;2022-11-15T00:50:58;10.90;99.90
50570;DHT22;36525;49.398;7.614;2022-11-15T00:53:24;10.90;99.90
50570;DHT22;36525;49.398;7.614;2022-11-15T00:55:51;10.90;99.90
50570;DHT22;36525;49.398;7.614;2022-11-15T00:58:19;10.90;99.90
50570;DHT22;36525;49.398;7.614;2022-11-15T01:00:46;10.90;99.90
50570;DHT22;36525;49.398;7.614;2022-11-15T01:03:13;11.00;99.90
50570;DHT22;36525;49.398;7.614;2022-11-15T01:05:40;11.10;99.90
50570;DHT22;36525;49.398;7.614;2022-11-15T01:08:12;11.10;99.90
50570;DHT22;36525;49.398;7.614;2022-11-15T01:10:40;11.10;99.90
50570;DHT22;36525;49.398;7.614;2022-11-15T01:13:08;11.10;99.90
50570;DHT22;36525;49.398;7.614;2022-11-15T01:15:39;11.10;99.90
50570;DHT22;36525;49.398;7.614;2022-11-15T01:18:07;11.10;99.90
50570;DHT22;36525;49.398;7.614;2022-11-15T01:20:34;11.00;99.90
50570;DHT22;36525;49.398;7.614;2022-11-15T01:23:06;11.00;99.90
50570;DHT22;36525;49.398;7.614;2022-11-15T01:25:33;11.00;99.90
50570;DHT22;36525;49.398;7.614;2022-11-15T01:28:00;11.00;99.90
50570;DHT22;36525;49.398;7.614;2022-11-15T01:30:27;11.00;99.90
50570;DHT22;36525;49.398;7.614;2022-11-15T01:32:54;11.10;99.90
50570;DHT22;36525;49.398;7.614;2022-11-15T01:35:21;11.10;99.90
50570;DHT22;36525;49.398;7.614;2022-11-15T01:37:48;11.10;99.90
50570;DHT22;36525;49.398;7.614;2022-11-15T01:40:15;11.00;99.90
50570;DHT22;36525;49.398;7.614;2022-11-15T01:42:42;11.00;99.90
50570;DHT22;36525;49.398;7.614;2022-11-15T01:45:17;11.00;99.90
50570;DHT22;36525;49.398;7.614;2022-11-15T01:47:52;11.00;99.90
50570;DHT22;36525;49.398;7.614;2022-11-15T01:50:26;10.90;99.90
50570;DHT22;36525;49.398;7.614;2022-11-15T01:52:56;10.90;99.90
50570;DHT22;36525;49.398;7.614;2022-11-15T01:55:26;10.90;99.90
50570;DHT22;36525;49.398;7.614;2022-11-15T01:57:57;10.90;99.90
50570;DHT22;36525;49.398;7.614;2022-11-15T02:00:26;10.90;99.90
50570;DHT22;36525;49.398;7.614;2022-11-15T02:02:54;10.90;99.90
50570;DHT22;36525;49.398;7.614;2022-11-15T02:05:21;10.90;99.90
50570;DHT22;36525;49.398;7.614;2022-11-15T02:07:49;11.00;99.90
50570;DHT22;36525;49.398;7.614;2022-11-15T02:10:22;10.90;99.90
50570;DHT22;36525;49.398;7.614;2022-11-15T02:12:50;10.90;99.90
50570;DHT22;36525;49.398;7.614;2022-11-15T02:15:18;10.80;99.90
50570;DHT22;36525;49.398;7.614;2022-11-15T02:21:11;10.80;99.90
50570;DHT22;36525;49.398;7.614;2022-11-15T02:28:05;10.80;99.90
50570;DHT22;36525;49.398;7.614;2022-11-15T02:36:01;10.90;99.90
50570;DHT22;36525;49.398;7.614;2022-11-15T02:39:03;10.80;99.90
50570;DHT22;36525;49.398;7.614;2022-11-15T02:41:42;10.90;99.90
50570;DHT22;36525;49.398;7.614;2022-11-15T02:47:12;10.90;99.90
50570;DHT22;36525;49.398;7.614;2022-11-15T02:49:53;10.90;99.90
50570;DHT22;36525;49.398;7.614;2022-11-15T02:52:24;10.90;99.90
50570;DHT22;36525;49.398;7.614;2022-11-15T02:54:55;11.00;99.90
50570;DHT22;36525;49.398;7.614;2022-11-15T03:00:24;10.90;99.90
50570;DHT22;36525;49.398;7.614;2022-11-15T03:08:54;11.00;99.90
50570;DHT22;36525;49.398;7.614;2022-11-15T03:11:29;11.00;99.90
50570;DHT22;36525;49.398;7.614;2022-11-15T03:17:00;11.00;99.90
50570;DHT22;36525;49.398;7.614;2022-11-15T03:19:51;11.00;99.90
50570;DHT22;36525;49.398;7.614;2022-11-15T03:22:22;11.10;99.90
50570;DHT22;36525;49.398;7.614;2022-11-15T03:24:53;11.10;99.90
50570;DHT22;36525;49.398;7.614;2022-11-15T03:27:25;11.10;99.90
50570;DHT22;36525;49.398;7.614;2022-11-15T03:30:06;11.10;99.90
50570;DHT22;36525;49.398;7.614;2022-11-15T03:32:46;11.10;99.90
50570;DHT22;36525;49.398;7.614;2022-11-15T03:35:22;11.10;99.90
50570;DHT22;36525;49.398;7.614;2022-11-15T03:38:11;11.10;99.90
50570;DHT22;36525;49.398;7.614;2022-11-15T03:40:49;11.10;99.90
50570;DHT22;36525;49.398;7.614;2022-11-15T03:43:33;11.10;99.90
50570;DHT22;36525;49.398;7.614;2022-11-15T03:46:22;11.00;99.90
50570;DHT22;36525;49.398;7.614;2022-11-15T03:48:59;11.00;99.90
50570;DHT22;36525;49.398;7.614;2022-11-15T03:51:31;11.00;99.90
50570;DHT22;36525;49.398;7.614;2022-11-15T03:53:58;11.00;99.90
50570;DHT22;36525;49.398;7.614;2022-11-15T03:56:25;10.90;99.90
50570;DHT22;36525;49.398;7.614;2022-11-15T03:58:52;10.90;99.90
50570;DHT22;36525;49.398;7.614;2022-11-15T04:01:19;10.90;99.90
50570;DHT22;36525;49.398;7.614;2022-11-15T04:03:46;11.00;99.90
50570;DHT22;36525;49.398;7.614;2022-11-15T04:06:12;11.00;99.90
50570;DHT22;36525;49.398;7.614;2022-11-15T04:08:39;10.90;99.90
50570;DHT22;36525;49.398;7.614;2022-11-15T04:11:06;10.90;99.90
50570;DHT22;36525;49.398;7.614;2022-11-15T04:13:33;10.90;99.90
50570;DHT22;36525;49.398;7.614;2022-11-15T04:16:00;11.00;99.90
50570;DHT22;36525;49.398;7.614;2022-11-15T04:18:27;10.90;99.90
50570;DHT22;36525;49.398;7.614;2022-11-15T04:20:54;10.90;99.90
50570;DHT22;36525;49.398;7.614;2022-11-15T04:23:39;10.80;99.90
50570;DHT22;36525;49.398;7.614;2022-11-15T04:26:25;10.80;99.90
50570;DHT22;36525;49.398;7.614;2022-11-15T04:28:52;10.80;99.90
50570;DHT22;36525;49.398;7.614;2022-11-15T04:31:37;10.70;99.90
50570;DHT22;36525;49.398;7.614;2022-11-15T04:34:04;10.70;99.90
50570;DHT22;36525;49.398;7.614;2022-11-15T04:36:31;10.60;99.90
50570;DHT22;36525;49.398;7.614;2022-11-15T04:39:16;10.50;99.90
50570;DHT22;36525;49.398;7.614;2022-11-15T04:41:43;10.50;99.90
50570;DHT22;36525;49.398;7.614;2022-11-15T04:44:10;10.50;99.90
50570;DHT22;36525;49.398;7.614;2022-11-15T04:46:37;10.50;99.90
50570;DHT22;36525;49.398;7.614;2022-11-15T04:49:04;10.50;99.90
50570;DHT22;36525;49.398;7.614;2022-11-15T04:51:31;10.50;99.90
50570;DHT22;36525;49.398;7.614;2022-11-15T04:53:58;10.60;99.90
50570;DHT22;36525;49.398;7.614;2022-11-15T04:56:24;10.60;99.90
50570;DHT22;36525;49.398;7.614;2022-11-15T04:58:51;10.60;99.90
50570;DHT22;36525;49.398;7.614;2022-11-15T05:01:18;10.60;99.90
50570;DHT22;36525;49.398;7.614;2022-11-15T05:03:45;10.60;99.90
50570;DHT22;36525;49.398;7.614;2022-11-15T05:06:31;10.50;99.90
50570;DHT22;36525;49.398;7.614;2022-11-15T05:08:58;10.40;99.90
50570;DHT22;36525;49.398;7.614;2022-11-15T05:11:25;10.40;99.90
50570;DHT22;36525;49.398;7.614;2022-11-15T05:13:53;10.40;99.90
50570;DHT22;36525;49.398;7.614;2022-11-15T05:16:21;10.40;99.90
50570;DHT22;36525;49.398;7.614;2022-11-15T05:18:53;10.40;99.90
50570;DHT22;36525;49.398;7.614;2022-11-15T05:21:22;10.40;99.90
50570;DHT22;36525;49.398;7.614;2022-11-15T05:23:49;10.40;99.90
50570;DHT22;36525;49.398;7.614;2022-11-15T05:26:17;10.40;99.90
50570;DHT22;36525;49.398;7.614;2022-11-15T05:28:44;10.40;99.90
50570;DHT22;36525;49.398;7.614;2022-11-15T05:31:14;10.40;99.90
50570;DHT22;36525;49.398;7.614;2022-11-15T05:33:43;10.40;99.90
50570;DHT22;36525;49.398;7.614;2022-11-15T05:38:47;10.40;99.90
50570;DHT22;36525;49.398;7.614;2022-11-15T05:41:15;10.40;99.90
50570;DHT22;36525;49.398;7.614;2022-11-15T05:43:44;10.40;99.90
50570;DHT22;36525;49.398;7.614;2022-11-15T05:46:12;10.50;99.90
50570;DHT22;36525;49.398;7.614;2022-11-15T05:48:44;10.50;99.90
50570;DHT22;36525;49.398;7.614;2022-11-15T05:51:12;10.50;99.90
50570;DHT22;36525;49.398;7.614;2022-11-15T05:53:41;10.50;99.90
50570;DHT22;36525;49.398;7.614;2022-11-15T05:56:09;10.50;99.90
50570;DHT22;36525;49.398;7.614;2022-11-15T05:58:36;10.50;99.90
50570;DHT22;36525;49.398;7.614;2022-11-15T06:01:04;10.50;99.90
50570;DHT22;36525;49.398;7.614;2022-11-15T06:03:31;10.50;99.90
50570;DHT22;36525;49.398;7.614;2022-11-15T06:05:58;10.50;99.90
50570;DHT22;36525;49.398;7.614;2022-11-15T06:08:25;10.50;99.90
50570;DHT22;36525;49.398;7.614;2022-11-15T06:10:52;10.50;99.90
50570;DHT22;36525;49.398;7.614;2022-11-15T06:13:19;10.50;99.90
50570;DHT22;36525;49.398;7.614;2022-11-15T06:15:46;10.50;99.90
50570;DHT22;36525;49.398;7.614;2022-11-15T06:18:13;10.50;99.90
50570;DHT22;36525;49.398;7.614;2022-11-15T06:20:40;10.60;99.90
50570;DHT22;36525;49.398;7.614;2022-11-15T06:23:06;10.60;99.90
50570;DHT22;36525;49.398;7.614;2022-11-15T06:25:33;10.60;99.90
50570;DHT22;36525;49.398;7.614;2022-11-15T06:28:00;10.60;99.90
50570;DHT22;36525;49.398;7.614;2022-11-15T06:30:27;10.50;99.90
50570;DHT22;36525;49.398;7.614;2022-11-15T06:33:05;10.60;99.90
50570;DHT22;36525;49.398;7.614;2022-11-15T06:35:34;10.50;99.90
50570;DHT22;36525;49.398;7.614;2022-11-15T06:38:03;10.50;99.90
50570;DHT22;36525;49.398;7.614;2022-11-15T06:40:34;10.50;99.90
50570;DHT22;36525;49.398;7.614;2022-11-15T06:43:02;10.50;99.90
50570;DHT22;36525;49.398;7.614;2022-11-15T06:45:30;10.50;99.90
50570;DHT22;36525;49.398;7.614;2022-11-15T06:47:58;10.50;99.90
50570;DHT22;36525;49.398;7.614;2022-11-15T06:50:25;10.50;99.90
50570;DHT22;36525;49.398;7.614;2022-11-15T06:52:52;10.50;99.90
50570;DHT22;36525;49.398;7.614;2022-11-15T06:55:19;10.60;99.90
50570;DHT22;36525;49.398;7.614;2022-11-15T06:57:48;10.60;99.90
50570;DHT22;36525;49.398;7.614;2022-11-15T07:00:17;10.50;99.90
50570;DHT22;36525;49.398;7.614;2022-11-15T07:02:46;10.50;99.90
50570;DHT22;36525;49.398;7.614;2022-11-15T07:05:14;10.60;99.90
50570;DHT22;36525;49.398;7.614;2022-11-15T07:07:42;10.50;99.90
50570;DHT22;36525;49.398;7.614;2022-11-15T07:10:09;10.50;99.90
50570;DHT22;36525;49.398;7.614;2022-11-15T07:12:36;10.50;99.90
50570;DHT22;36525;49.398;7.614;2022-11-15T07:15:03;10.50;99.90
50570;DHT22;36525;49.398;7.614;2022-11-15T07:17:31;10.50;99.90
50570;DHT22;36525;49.398;7.614;2022-11-15T07:19:58;10.50;99.90
50570;DHT22;36525;49.398;7.614;2022-11-15T07:22:25;10.50;99.90
50570;DHT22;36525;49.398;7.614;2022-11-15T07:24:52;10.50;99.90
50570;DHT22;36525;49.398;7.614;2022-11-15T07:27:19;10.50;99.90
50570;DHT22;36525;49.398;7.614;2022-11-15T07:29:46;10.50;99.90
50570;DHT22;36525;49.398;7.614;2022-11-15T07:32:13;10.50;99.90
50570;DHT22;36525;49.398;7.614;2022-11-15T07:34:40;10.60;99.90
50570;DHT22;36525;49.398;7.614;2022-11-15T07:37:06;10.70;99.90
50570;DHT22;36525;49.398;7.614;2022-11-15T07:39:33;10.70;99.90
50570;DHT22;36525;49.398;7.614;2022-11-15T07:42:00;10.70;99.90
50570;DHT22;36525;49.398;7.614;2022-11-15T07:44:46;10.70;99.90
50570;DHT22;36525;49.398;7.614;2022-11-15T07:47:13;10.70;99.90
50570;DHT22;36525;49.398;7.614;2022-11-15T07:49:40;10.80;99.90
50570;DHT22;36525;49.398;7.614;2022-11-15T07:52:07;10.90;99.90
50570;DHT22;36525;49.398;7.614;2022-11-15T07:54:34;10.90;99.90
50570;DHT22;36525;49.398;7.614;2022-11-15T07:57:01;10.90;99.90
50570;DHT22;36525;49.398;7.614;2022-11-15T07:59:33;10.90;99.90
50570;DHT22;36525;49.398;7.614;2022-11-15T08:02:01;11.00;99.90
50570;DHT22;36525;49.398;7.614;2022-11-15T08:04:28;11.00;99.90
50570;DHT22;36525;49.398;7.614;2022-11-15T08:06:55;11.10;99.90
50570;DHT22;36525;49.398;7.614;2022-11-15T08:09:23;11.10;99.90
50570;DHT22;36525;49.398;7.614;2022-11-15T08:11:50;11.20;99.90
50570;DHT22;36525;49.398;7.614;2022-11-15T08:14:17;11.20;99.90
50570;DHT22;36525;49.398;7.614;2022-11-15T08:16:44;11.20;99.90
50570;DHT22;36525;49.398;7.614;2022-11-15T08:19:11;11.30;99.90
50570;DHT22;36525;49.398;7.614;2022-11-15T08:21:38;11.30;99.90
50570;DHT22;36525;49.398;7.614;2022-11-15T08:24:05;11.50;99.90
50570;DHT22;36525;49.398;7.614;2022-11-15T08:26:32;11.60;99.90
50570;DHT22;36525;49.398;7.614;2022-11-15T08:28:59;11.70;99.90
50570;DHT22;36525;49.398;7.614;2022-11-15T08:31:26;11.70;99.90
50570;DHT22;36525;49.398;7.614;2022-11-15T08:33:53;11.80;99.90
50570;DHT22;36525;49.398;7.614;2022-11-15T08:36:20;11.70;99.90
50570;DHT22;36525;49.398;7.614;2022-11-15T08:38:47;11.80;99.90
50570;DHT22;36525;49.398;7.614;2022-11-15T08:41:31;11.70;99.90
50570;DHT22;36525;49.398;7.614;2022-11-15T08:43:59;11.70;99.90
50570;DHT22;36525;49.398;7.614;2022-11-15T08:46:26;11.70;99.90
50570;DHT22;36525;49.398;7.614;2022-11-15T08:48:53;11.70;99.90
50570;DHT22;36525;49.398;7.614;2022-11-15T08:51:20;11.80;99.90
50570;DHT22;36525;49.398;7.614;2022-11-15T08:53:47;11.80;99.90
50570;DHT22;36525;49.398;7.614;2022-11-15T08:56:15;11.80;99.90
50570;DHT22;36525;49.398;7.614;2022-11-15T08:58:42;11.90;99.90
50570;DHT22;36525;49.398;7.614;2022-11-15T09:01:19;11.90;99.90
50570;DHT22;36525;49.398;7.614;2022-11-15T09:03:47;11.90;99.90
50570;DHT22;36525;49.398;7.614;2022-11-15T09:06:15;12.00;99.90
50570;DHT22;36525;49.398;7.614;2022-11-15T09:08:42;12.00;99.90
50570;DHT22;36525;49.398;7.614;2022-11-15T09:11:17;12.10;99.90
50570;DHT22;36525;49.398;7.614;2022-11-15T09:13:46;12.20;99.90
50570;DHT22;36525;49.398;7.614;2022-11-15T09:16:13;12.20;99.90
50570;DHT22;36525;49.398;7.614;2022-11-15T09:18:41;12.30;99.90
50570;DHT22;36525;49.398;7.614;2022-11-15T09:21:09;12.50;99.90
50570;DHT22;36525;49.398;7.614;2022-11-15T09:23:36;12.50;99.90
50570;DHT22;36525;49.398;7.614;2022-11-15T09:26:05;12.50;99.90
50570;DHT22;36525;49.398;7.614;2022-11-15T09:28:32;12.60;99.90
50570;DHT22;36525;49.398;7.614;2022-11-15T09:31:02;12.50;99.90
50570;DHT22;36525;49.398;7.614;2022-11-15T09:33:30;12.50;99.90
50570;DHT22;36525;49.398;7.614;2022-11-15T09:36:07;12.40;99.90
50570;DHT22;36525;49.398;7.614;2022-11-15T09:38:35;12.30;99.90
50570;DHT22;36525;49.398;7.614;2022-11-15T09:43:50;12.40;99.90
50570;DHT22;36525;49.398;7.614;2022-11-15T09:47:05;12.40;99.90
50570;DHT22;36525;49.398;7.614;2022-11-15T09:49:52;12.30;99.90
50570;DHT22;36525;49.398;7.614;2022-11-15T09:52:23;12.20;99.90
50570;DHT22;36525;49.398;7.614;2022-11-15T09:54:52;12.10;99.90
50570;DHT22;36525;49.398;7.614;2022-11-15T09:57:45;12.20;99.90
50570;DHT22;36525;49.398;7.614;2022-11-15T10:00:35;12.30;99.90
50570;DHT22;36525;49.398;7.614;2022-11-15T10:03:22;12.30;99.90
50570;DHT22;36525;49.398;7.614;2022-11-15T10:05:56;12.40;99.90
50570;DHT22;36525;49.398;7.614;2022-11-15T10:11:10;12.70;99.90
50570;DHT22;36525;49.398;7.614;2022-11-15T10:14:02;12.80;99.90
50570;DHT22;36525;49.398;7.614;2022-11-15T10:17:09;13.00;99.90
50570;DHT22;36525;49.398;7.614;2022-11-15T10:20:24;13.30;99.90
50570;DHT22;36525;49.398;7.614;2022-11-15T10:23:06;13.60;99.90
50570;DHT22;36525;49.398;7.614;2022-11-15T10:25:37;13.60;99.90
50570;DHT22;36525;49.398;7.614;2022-11-15T10:28:27;13.70;99.90
50570;DHT22;36525;49.398;7.614;2022-11-15T10:30:58;13.90;99.90
50570;DHT22;36525;49.398;7.614;2022-11-15T10:41:23;13.70;99.90
50570;DHT22;36525;49.398;7.614;2022-11-15T10:49:26;14.10;99.90
50570;DHT22;36525;49.398;7.614;2022-11-15T10:52:18;14.30;99.90
50570;DHT22;36525;49.398;7.614;2022-11-15T10:57:50;14.60;99.90
50570;DHT22;36525;49.398;7.614;2022-11-15T11:02:58;14.60;99.90
50570;DHT22;36525;49.398;7.614;2022-11-15T11:05:37;14.70;99.90
50570;DHT22;36525;49.398;7.614;2022-11-15T11:10:38;14.70;99.90
50570;DHT22;36525;49.398;7.614;2022-11-15T11:13:38;14.50;99.90
50570;DHT22;36525;49.398;7.614;2022-11-15T11:22:39;14.70;99.90
50570;DHT22;36525;49.398;7.614;2022-11-15T11:42:32;15.10;99.90
50570;DHT22;36525;49.398;7.614;2022-11-15T11:50:37;15.10;99.90
50570;DHT22;36525;49.398;7.614;2022-11-15T11:53:29;15.20;99.90
50570;DHT22;36525;49.398;7.614;2022-11-15T11:56:02;15.40;99.90
50570;DHT22;36525;49.398;7.614;2022-11-15T11:58:41;15.50;99.90
50570;DHT22;36525;49.398;7.614;2022-11-15T12:01:13;15.50;99.90
50570;DHT22;36525;49.398;7.614;2022-11-15T12:03:52;15.50;99.90
50570;DHT22;36525;49.398;7.614;2022-11-15T12:06:37;15.50;99.90
50570;DHT22;36525;49.398;7.614;2022-11-15T12:14:47;15.60;99.90
50570;DHT22;36525;49.398;7.614;2022-11-15T12:17:20;15.80;99.90
50570;DHT22;36525;49.398;7.614;2022-11-15T12:19:49;15.70;99.90
50570;DHT22;36525;49.398;7.614;2022-11-15T12:22:44;15.50;99.90
50570;DHT22;36525;49.398;7.614;2022-11-15T12:25:22;15.40;99.90
50570;DHT22;36525;49.398;7.614;2022-11-15T12:34:15;15.50;99.90
50570;DHT22;36525;49.398;7.614;2022-11-15T12:36:56;15.40;99.90
50570;DHT22;36525;49.398;7.614;2022-11-15T12:45:39;15.80;99.90
50570;DHT22;36525;49.398;7.614;2022-11-15T12:58:59;15.60;99.90
50570;DHT22;36525;49.398;7.614;2022-11-15T13:06:47;15.30;99.90
50570;DHT22;36525;49.398;7.614;2022-11-15T13:14:57;15.20;99.90
50570;DHT22;36525;49.398;7.614;2022-11-15T13:20:01;14.90;99.90
50570;DHT22;36525;49.398;7.614;2022-11-15T13:22:42;15.00;99.90
50570;DHT22;36525;49.398;7.614;2022-11-15T13:30:37;14.90;99.90
50570;DHT22;36525;49.398;7.614;2022-11-15T13:33:15;14.90;99.90
50570;DHT22;36525;49.398;7.614;2022-11-15T13:35:46;14.90;99.90
50570;DHT22;36525;49.398;7.614;2022-11-15T13:38:30;14.90;99.90
50570;DHT22;36525;49.398;7.614;2022-11-15T13:41:14;14.90;99.90
50570;DHT22;36525;49.398;7.614;2022-11-15T13:43:48;14.90;99.90
50570;DHT22;36525;49.398;7.614;2022-11-15T13:51:40;14.90;99.90
50570;DHT22;36525;49.398;7.614;2022-11-15T13:54:20;14.80;99.90
50570;DHT22;36525;49.398;7.614;2022-11-15T13:56:51;14.80;99.90
50570;DHT22;36525;49.398;7.614;2022-11-15T13:59:26;14.80;99.90
50570;DHT22;36525;49.398;7.614;2022-11-15T14:01:55;14.70;99.90
50570;DHT22;36525;49.398;7.614;2022-11-15T14:04:25;14.70;99.90
50570;DHT22;36525;49.398;7.614;2022-11-15T14:06:57;14.70;99.90
50570;DHT22;36525;49.398;7.614;2022-11-15T14:09:37;14.70;99.90
50570;DHT22;36525;49.398;7.614;2022-11-15T14:12:49;14.50;99.90
50570;DHT22;36525;49.398;7.614;2022-11-15T14:15:36;14.30;99.90
50570;DHT22;36525;49.398;7.614;2022-11-15T14:18:05;14.20;99.90
50570;DHT22;36525;49.398;7.614;2022-11-15T14:23:05;14.20;99.90
50570;DHT22;36525;49.398;7.614;2022-11-15T14:25:56;14.00;99.90
50570;DHT22;36525;49.398;7.614;2022-11-15T14:30:53;14.10;99.90
50570;DHT22;36525;49.398;7.614;2022-11-15T14:38:42;13.70;99.90
50570;DHT22;36525;49.398;7.614;2022-11-15T14:41:18;13.70;99.90
50570;DHT22;36525;49.398;7.614;2022-11-15T14:43:46;13.70;99.90
50570;DHT22;36525;49.398;7.614;2022-11-15T14:46:13;13.60;99.90
50570;DHT22;36525;49.398;7.614;2022-11-15T14:48:40;13.60;99.90
50570;DHT22;36525;49.398;7.614;2022-11-15T14:51:18;13.50;99.90
50570;DHT22;36525;49.398;7.614;2022-11-15T14:53:46;13.50;99.90
50570;DHT22;36525;49.398;7.614;2022-11-15T14:56:13;13.50;99.90
50570;DHT22;36525;49.398;7.614;2022-11-15T14:58:41;13.50;99.90
50570;DHT22;36525;49.398;7.614;2022-11-15T15:01:21;13.60;99.90
50570;DHT22;36525;49.398;7.614;2022-11-15T15:03:50;13.50;99.90
50570;DHT22;36525;49.398;7.614;2022-11-15T15:06:19;13.40;99.90
50570;DHT22;36525;49.398;7.614;2022-11-15T15:08:46;13.40;99.90
50570;DHT22;36525;49.398;7.614;2022-11-15T15:11:21;13.40;99.90
50570;DHT22;36525;49.398;7.614;2022-11-15T15:13:50;13.30;99.90
50570;DHT22;36525;49.398;7.614;2022-11-15T15:16:19;13.30;99.90
50570;DHT22;36525;49.398;7.614;2022-11-15T15:18:46;13.20;99.90
50570;DHT22;36525;49.398;7.614;2022-11-15T15:21:22;13.30;99.90
50570;DHT22;36525;49.398;7.614;2022-11-15T15:23:51;13.20;99.90
50570;DHT22;36525;49.398;7.614;2022-11-15T15:26:21;13.10;99.90
50570;DHT22;36525;49.398;7.614;2022-11-15T15:28:49;13.10;99.90
50570;DHT22;36525;49.398;7.614;2022-11-15T15:31:17;13.00;99.90
50570;DHT22;36525;49.398;7.614;2022-11-15T15:33:45;12.90;99.90
50570;DHT22;36525;49.398;7.614;2022-11-15T15:36:13;12.90;99.90
50570;DHT22;36525;49.398;7.614;2022-11-15T15:38:41;12.90;99.90
50570;DHT22;36525;49.398;7.614;2022-11-15T15:41:11;12.80;99.90
50570;DHT22;36525;49.398;7.614;2022-11-15T15:43:38;12.70;99.90
50570;DHT22;36525;49.398;7.614;2022-11-15T15:46:14;12.70;99.90
50570;DHT22;36525;49.398;7.614;2022-11-15T15:48:42;12.70;99.90
50570;DHT22;36525;49.398;7.614;2022-11-15T15:51:09;12.60;99.90
50570;DHT22;36525;49.398;7.614;2022-11-15T15:53:46;12.60;99.90
50570;DHT22;36525;49.398;7.614;2022-11-15T15:56:14;12.50;99.90
50570;DHT22;36525;49.398;7.614;2022-11-15T15:58:41;12.40;99.90
50570;DHT22;36525;49.398;7.614;2022-11-15T16:01:07;12.40;99.90
50570;DHT22;36525;49.398;7.614;2022-11-15T16:03:34;12.40;99.90
50570;DHT22;36525;49.398;7.614;2022-11-15T16:06:01;12.30;99.90
50570;DHT22;36525;49.398;7.614;2022-11-15T16:08:30;12.30;99.90
50570;DHT22;36525;49.398;7.614;2022-11-15T16:11:17;12.30;99.90
50570;DHT22;36525;49.398;7.614;2022-11-15T16:13:44;12.30;99.90
50570;DHT22;36525;49.398;7.614;2022-11-15T16:16:13;12.20;99.90
50570;DHT22;36525;49.398;7.614;2022-11-15T16:18:40;12.30;99.90
50570;DHT22;36525;49.398;7.614;2022-11-15T16:21:07;12.30;99.90
50570;DHT22;36525;49.398;7.614;2022-11-15T16:23:34;12.30;99.90
50570;DHT22;36525;49.398;7.614;2022-11-15T16:26:01;12.30;99.90
50570;DHT22;36525;49.398;7.614;2022-11-15T16:28:31;12.30;99.90
50570;DHT22;36525;49.398;7.614;2022-11-15T16:31:02;12.30;99.90
50570;DHT22;36525;49.398;7.614;2022-11-15T16:33:32;12.30;99.90
50570;DHT22;36525;49.398;7.614;2022-11-15T16:35:59;12.30;99.90
50570;DHT22;36525;49.398;7.614;2022-11-15T16:38:27;12.30;99.90
50570;DHT22;36525;49.398;7.614;2022-11-15T16:40:54;12.30;99.90
50570;DHT22;36525;49.398;7.614;2022-11-15T16:43:21;12.30;99.90
50570;DHT22;36525;49.398;7.614;2022-11-15T16:45:49;12.30;99.90
50570;DHT22;36525;49.398;7.614;2022-11-15T16:48:27;12.40;99.90
50570;DHT22;36525;49.398;7.614;2022-11-15T16:50:58;12.30;99.90
50570;DHT22;36525;49.398;7.614;2022-11-15T16:53:26;12.30;99.90
50570;DHT22;36525;49.398;7.614;2022-11-15T16:55:56;12.30;99.90
50570;DHT22;36525;49.398;7.614;2022-11-15T16:58:23;12.30;99.90
50570;DHT22;36525;49.398;7.614;2022-11-15T17:00:52;12.30;99.90
50570;DHT22;36525;49.398;7.614;2022-11-15T17:03:21;12.30;99.90
50570;DHT22;36525;49.398;7.614;2022-11-15T17:05:49;12.30;99.90
50570;DHT22;36525;49.398;7.614;2022-11-15T17:08:16;12.30;99.90
50570;DHT22;36525;49.398;7.614;2022-11-15T17:10:43;12.30;99.90
50570;DHT22;36525;49.398;7.614;2022-11-15T17:13:14;12.20;99.90
50570;DHT22;36525;49.398;7.614;2022-11-15T17:15:41;12.10;99.90
50570;DHT22;36525;49.398;7.614;2022-11-15T17:18:11;12.10;99.90
50570;DHT22;36525;49.398;7.614;2022-11-15T17:20:40;12.10;99.90
50570;DHT22;36525;49.398;7.614;2022-11-15T17:23:14;12.20;99.90
50570;DHT22;36525;49.398;7.614;2022-11-15T17:25:41;12.20;99.90
50570;DHT22;36525;49.398;7.614;2022-11-15T17:28:09;12.10;99.90
50570;DHT22;36525;49.398;7.614;2022-11-15T17:30:40;12.10;99.90
50570;DHT22;36525;49.398;7.614;2022-11-15T17:33:08;12.10;99.90
50570;DHT22;36525;49.398;7.614;2022-11-15T17:35:35;12.10;99.90
50570;DHT22;36525;49.398;7.614;2022-11-15T17:38:02;12.10;99.90
50570;DHT22;36525;49.398;7.614;2022-11-15T17:40:29;12.10;99.90
50570;DHT22;36525;49.398;7.614;2022-11-15T17:42:56;12.00;99.90
50570;DHT22;36525;49.398;7.614;2022-11-15T17:45:23;12.00;99.90
50570;DHT22;36525;49.398;7.614;2022-11-15T17:47:49;12.00;99.90
50570;DHT22;36525;49.398;7.614;2022-11-15T17:50:16;12.10;99.90
50570;DHT22;36525;49.398;7.614;2022-11-15T17:52:43;12.00;99.90
50570;DHT22;36525;49.398;7.614;2022-11-15T17:55:10;12.10;99.90
50570;DHT22;36525;49.398;7.614;2022-11-15T17:57:37;12.00;99.90
50570;DHT22;36525;49.398;7.614;2022-11-15T18:00:04;12.10;99.90
50570;DHT22;36525;49.398;7.614;2022-11-15T18:02:32;12.10;99.90
50570;DHT22;36525;49.398;7.614;2022-11-15T18:04:59;12.10;99.90
50570;DHT22;36525;49.398;7.614;2022-11-15T18:07:26;12.00;99.90
50570;DHT22;36525;49.398;7.614;2022-11-15T18:09:53;12.00;99.90
50570;DHT22;36525;49.398;7.614;2022-11-15T18:12:20;12.00;99.90
50570;DHT22;36525;49.398;7.614;2022-11-15T18:14:47;12.00;99.90
50570;DHT22;36525;49.398;7.614;2022-11-15T18:17:14;11.90;99.90
50570;DHT22;36525;49.398;7.614;2022-11-15T18:19:41;11.90;99.90
50570;DHT22;36525;49.398;7.614;2022-11-15T18:22:07;11.90;99.90
50570;DHT22;36525;49.398;7.614;2022-11-15T18:24:36;11.80;99.90